Time;durP1;ratioP1;P1;durP2;ratioP2;P2;SDS_P1;SDS_P2;PMS_P1;PMS_P2;Temp;Humidity;BMP_temperature;BMP_pressure;BME280_temperature;BME280_humidity;BME280_pressure;Samples;Min_cycle;Max_cycle;Signal;HPM_P1;HPM_P2
2022/05/24 00:00:22;;;;;;;19.13;12.07;;;15.70;99.90;;;;;;4997799;28;20469;-54
2022/05/24 00:02:48;;;;;;;13.13;11.73;;;15.80;99.90;;;;;;4997708;28;20212;-55
2022/05/24 00:05:15;;;;;;;15.60;12.20;;;15.80;1.00;;;;;;4997689;28;20411;-55
2022/05/24 00:07:41;;;;;;;13.67;11.63;;;15.80;99.90;;;;;;4997483;28;20238;-55
2022/05/24 00:10:10;;;;;;;15.00;12.93;;;15.80;1.00;;;;;;4997647;28;20421;-54
2022/05/24 00:12:37;;;;;;;13.57;11.93;;;15.90;1.00;;;;;;4997622;28;20434;-55
2022/05/24 00:15:20;;;;;;;17.53;11.93;;;15.90;1.00;;;;;;4996536;28;20477;-55
2022/05/24 00:17:53;;;;;;;16.57;11.17;;;15.80;72.20;;;;;;4997543;28;20845;-54
2022/05/24 00:20:20;;;;;;;14.70;11.77;;;15.80;99.90;;;;;;4997539;28;20816;-54
2022/05/24 00:22:45;;;;;;;12.50;11.00;;;15.80;99.90;;;;;;4997491;28;20892;-55
2022/05/24 00:25:11;;;;;;;14.27;11.40;;;15.80;1.00;;;;;;4997443;28;20416;-54
2022/05/24 00:27:37;;;;;;;14.20;12.70;;;15.80;1.00;;;;;;4997668;28;20195;-55
2022/05/24 00:30:04;;;;;;;15.10;12.00;;;15.70;1.00;;;;;;4996144;28;20184;-55
2022/05/24 00:32:29;;;;;;;12.87;11.53;;;15.70;1.00;;;;;;4992936;28;20185;-55
2022/05/24 00:34:55;;;;;;;14.07;12.40;;;15.70;99.90;;;;;;4994394;28;20908;-55
2022/05/24 00:37:23;;;;;;;16.30;11.33;;;15.70;99.90;;;;;;4994166;28;20192;-55
2022/05/24 00:39:48;;;;;;;14.67;12.07;;;15.70;1.00;;;;;;4994331;28;20263;-55
2022/05/24 00:42:19;;;;;;;14.83;11.43;;;15.70;1.00;;;;;;4994241;28;20462;-55
2022/05/24 00:45:17;;;;;;;14.33;11.80;;;15.80;99.90;;;;;;4994087;28;20187;-54
2022/05/24 00:47:54;;;;;;;12.60;11.30;;;15.80;99.90;;;;;;4994248;28;20451;-56
2022/05/24 00:50:30;;;;;;;19.33;12.47;;;15.70;1.00;;;;;;4994114;28;20415;-55
2022/05/24 00:53:08;;;;;;;14.53;12.17;;;15.70;99.90;;;;;;4994178;28;20469;-54
2022/05/24 00:55:42;;;;;;;14.53;12.70;;;15.70;1.00;;;;;;4994219;28;20403;-55
2022/05/24 00:58:24;;;;;;;12.83;11.50;;;15.70;55.60;;;;;;4994123;28;20462;-55
2022/05/24 01:00:50;;;;;;;14.50;13.00;;;15.70;99.90;;;;;;4993862;28;20408;-55
2022/05/24 01:03:16;;;;;;;13.07;11.77;;;15.70;99.90;;;;;;4993934;28;20499;-55
2022/05/24 01:05:43;;;;;;;14.73;13.17;;;15.60;36.90;;;;;;4993752;28;20735;-55
2022/05/24 01:08:10;;;;;;;14.17;12.77;;;15.70;99.90;;;;;;4993577;28;20228;-55
2022/05/24 01:10:51;;;;;;;14.47;12.50;;;15.70;99.90;;;;;;4994017;28;20431;-55
2022/05/24 01:13:20;;;;;;;16.50;13.37;;;15.70;99.90;;;;;;4992292;28;20423;-55
2022/05/24 01:15:47;;;;;;;14.33;12.83;;;15.70;1.00;;;;;;4993556;28;20436;-55
2022/05/24 01:18:14;;;;;;;15.90;13.67;;;15.70;99.90;;;;;;4993583;28;20550;-55
2022/05/24 01:20:43;;;;;;;15.53;13.87;;;15.70;99.90;;;;;;4993616;28;20442;-55
2022/05/24 01:23:36;;;;;;;24.10;15.20;;;15.70;1.00;;;;;;4993675;28;20407;-54
2022/05/24 01:26:41;;;;;;;15.97;14.27;;;15.90;25.50;;;;;;4993479;28;20928;-54
2022/05/24 01:29:09;;;;;;;19.77;14.60;;;15.90;1.00;;;;;;4993613;28;20470;-54
2022/05/24 01:37:06;;;;;;;17.13;15.13;;;16.20;99.90;;;;;;4993179;28;20399;-54
2022/05/24 01:39:32;;;;;;;20.53;15.50;;;16.20;99.90;;;;;;4993330;28;20459;-54
2022/05/24 01:41:58;;;;;;;19.00;16.63;;;16.20;1.00;;;;;;4993273;28;20419;-54
2022/05/24 01:44:46;;;;;;;22.27;16.07;;;16.20;13.80;;;;;;4992016;28;20763;-54
2022/05/24 01:47:13;;;;;;;18.70;14.40;;;16.20;99.90;;;;;;4993031;28;20427;-54
2022/05/24 01:49:42;;;;;;;14.80;12.90;;;16.20;99.90;;;;;;4993118;28;20916;-54
2022/05/24 01:52:18;;;;;;;14.37;12.83;;;16.20;99.90;;;;;;4992910;28;20443;-54
2022/05/24 01:54:47;;;;;;;14.90;11.73;;;16.10;10.00;;;;;;4993003;28;20411;-55
2022/05/24 01:57:20;;;;;;;12.33;10.30;;;16.00;1.00;;;;;;4992761;28;20759;-55
2022/05/24 01:59:50;;;;;;;9.57;8.53;;;15.90;99.90;;;;;;4993006;28;20428;-54
2022/05/24 02:02:16;;;;;;;8.17;7.43;;;15.80;53.20;;;;;;4992957;28;20440;-55
2022/05/24 02:04:42;;;;;;;8.30;7.40;;;15.60;1.00;;;;;;4992663;28;20458;-54
2022/05/24 02:07:16;;;;;;;15.30;8.20;;;15.50;1.00;;;;;;4992393;28;20473;-54
2022/05/24 02:09:45;;;;;;;9.67;7.10;;;15.30;1.00;;;;;;4992952;28;20424;-55
2022/05/24 02:12:45;;;;;;;11.20;7.57;;;15.30;70.50;;;;;;4992462;28;20568;-55
2022/05/24 02:15:22;;;;;;;9.40;8.20;;;15.10;99.90;;;;;;4992484;28;20405;-55
2022/05/24 02:18:10;;;;;;;8.90;8.10;;;15.00;99.90;;;;;;4992384;28;20494;-55
2022/05/24 02:20:38;;;;;;;9.47;8.47;;;15.00;99.90;;;;;;4992294;28;20396;-55
2022/05/24 02:23:04;;;;;;;9.57;8.57;;;14.90;99.90;;;;;;4992376;28;20502;-55
2022/05/24 02:25:44;;;;;;;12.87;9.87;;;14.90;99.90;;;;;;4992164;28;20482;-54
2022/05/24 02:28:11;;;;;;;12.07;10.57;;;14.90;99.90;;;;;;4992227;28;20415;-55
2022/05/24 02:30:51;;;;;;;13.50;9.63;;;14.80;99.90;;;;;;4992158;28;20420;-55
2022/05/24 02:33:18;;;;;;;15.73;10.90;;;14.80;99.90;;;;;;4992858;28;20418;-55
2022/05/24 02:35:44;;;;;;;14.17;11.10;;;14.80;99.90;;;;;;4992347;28;20423;-55
2022/05/24 02:38:09;;;;;;;16.30;12.00;;;14.80;99.90;;;;;;4992129;28;20466;-55
2022/05/24 02:43:19;;;;;;;20.70;15.37;;;14.90;99.90;;;;;;4992325;28;20187;-55
2022/05/24 02:45:45;;;;;;;24.60;15.60;;;14.90;99.90;;;;;;4992144;28;20890;-55
2022/05/24 02:48:10;;;;;;;24.20;16.90;;;14.80;99.90;;;;;;4992062;28;20188;-55
2022/05/24 02:50:36;;;;;;;20.23;15.00;;;14.70;99.90;;;;;;4991958;28;20181;-55
2022/05/24 02:53:02;;;;;;;21.80;16.37;;;14.80;99.90;;;;;;4992011;28;20192;-55
2022/05/24 02:55:27;;;;;;;22.40;16.70;;;14.70;99.90;;;;;;4991442;28;20179;-54
2022/05/24 02:57:53;;;;;;;20.33;16.30;;;14.80;99.90;;;;;;4991884;28;20798;-55
2022/05/24 03:00:23;;;;;;;23.87;15.57;;;14.70;99.90;;;;;;4992161;28;20191;-55
2022/05/24 03:02:49;;;;;;;22.17;16.97;;;14.70;99.90;;;;;;4991717;28;20181;-55
2022/05/24 03:05:15;;;;;;;23.70;16.97;;;14.70;99.90;;;;;;4991886;28;20483;-54
2022/05/24 03:10:28;;;;;;;24.70;17.67;;;14.70;99.90;;;;;;4991849;28;20426;-54
2022/05/24 03:15:42;;;;;;;31.53;17.40;;;14.60;99.90;;;;;;4991923;28;20483;-54
2022/05/24 03:18:08;;;;;;;26.57;17.63;;;14.60;1.00;;;;;;4991383;28;20945;-54
2022/05/24 03:20:34;;;;;;;24.73;16.67;;;14.60;1.00;;;;;;4991460;28;20813;-53
2022/05/24 03:23:00;;;;;;;24.33;15.73;;;14.60;1.00;;;;;;4991534;28;20521;-54
2022/05/24 03:25:26;;;;;;;25.17;16.33;;;14.50;1.00;;;;;;4991517;28;20191;-54
2022/05/24 03:27:51;;;;;;;23.97;15.87;;;14.50;99.90;;;;;;4991950;28;20423;-54
2022/05/24 03:30:18;;;;;;;21.33;14.53;;;14.50;1.00;;;;;;4991544;28;20189;-55
2022/05/24 03:32:44;;;;;;;24.13;17.20;;;14.50;81.00;;;;;;4991290;28;20657;-54
2022/05/24 03:35:14;;;;;;;20.63;15.30;;;14.50;99.90;;;;;;4991393;28;20508;-54
2022/05/24 03:37:41;;;;;;;23.43;16.27;;;14.50;99.90;;;;;;4991332;28;20173;-54
2022/05/24 03:40:09;;;;;;;23.23;15.43;;;14.50;1.00;;;;;;4991344;28;20423;-54
2022/05/24 03:42:35;;;;;;;25.40;16.40;;;14.50;1.00;;;;;;4991306;28;20435;-54
2022/05/24 03:45:01;;;;;;;24.07;16.87;;;14.50;99.90;;;;;;4991211;28;20431;-53
2022/05/24 03:47:26;;;;;;;25.20;17.13;;;14.50;99.90;;;;;;4991321;28;20424;-53
2022/05/24 03:49:52;;;;;;;22.37;16.00;;;14.50;33.00;;;;;;4991286;28;20510;-53
2022/05/24 03:52:17;;;;;;;22.47;16.20;;;14.50;70.80;;;;;;4991234;28;20607;-53
2022/05/24 03:54:43;;;;;;;23.93;15.40;;;14.50;1.00;;;;;;4991208;28;20173;-54
2022/05/24 03:59:53;;;;;;;21.13;15.60;;;14.50;1.00;;;;;;4991367;28;20649;-53
2022/05/24 04:02:18;;;;;;;18.23;13.27;;;14.60;99.90;;;;;;4991231;28;20419;-54
2022/05/24 04:04:43;;;;;;;23.53;13.37;;;14.60;1.00;;;;;;4991449;28;20203;-52
2022/05/24 04:07:09;;;;;;;17.70;13.17;;;14.60;99.90;;;;;;4993283;28;20184;-53
2022/05/24 04:09:35;;;;;;;19.03;12.50;;;14.70;1.00;;;;;;4994745;28;20227;-53
2022/05/24 04:12:01;;;;;;;18.43;11.70;;;14.70;1.00;;;;;;4994905;28;20332;-53
2022/05/24 04:14:31;;;;;;;15.80;11.90;;;14.70;99.90;;;;;;4994770;28;20550;-52
2022/05/24 04:16:57;;;;;;;16.17;11.03;;;14.70;99.90;;;;;;4995079;28;20416;-53
2022/05/24 04:19:22;;;;;;;16.90;10.70;;;14.70;1.00;;;;;;4994573;28;20469;-53
2022/05/24 04:21:48;;;;;;;13.50;9.17;;;14.80;1.00;;;;;;4994528;28;20235;-52
2022/05/24 04:24:14;;;;;;;14.20;9.20;;;14.80;99.90;;;;;;4994510;28;20189;-52
2022/05/24 04:26:40;;;;;;;14.17;9.80;;;14.70;99.90;;;;;;4994484;28;20172;-52
2022/05/24 04:29:05;;;;;;;11.03;8.63;;;14.70;99.90;;;;;;4994626;28;20188;-52
2022/05/24 04:31:31;;;;;;;18.87;9.50;;;14.70;1.00;;;;;;4994493;28;20532;-52
2022/05/24 04:33:56;;;;;;;13.03;8.10;;;14.60;99.90;;;;;;4994466;28;20271;-52
2022/05/24 04:36:22;;;;;;;10.10;7.90;;;14.60;99.90;;;;;;4994423;28;20584;-52
2022/05/24 04:38:47;;;;;;;11.83;8.40;;;14.60;99.90;;;;;;4994172;28;20218;-52
2022/05/24 04:43:58;;;;;;;14.07;8.80;;;14.60;99.90;;;;;;4994255;28;20196;-52
2022/05/24 04:46:23;;;;;;;13.73;7.60;;;14.50;99.90;;;;;;4994219;28;20841;-52
2022/05/24 04:48:49;;;;;;;11.23;7.40;;;14.50;99.90;;;;;;4994326;28;20173;-52
2022/05/24 04:51:15;;;;;;;9.10;7.47;;;14.50;99.90;;;;;;4993868;28;20188;-52
2022/05/24 04:53:40;;;;;;;12.80;7.20;;;14.50;99.90;;;;;;4994163;28;20251;-52
2022/05/24 04:56:06;;;;;;;11.60;7.47;;;14.50;99.90;;;;;;4994143;28;20188;-52
2022/05/24 04:58:31;;;;;;;15.07;8.17;;;14.40;99.90;;;;;;4994284;28;20211;-52
2022/05/24 05:00:57;;;;;;;10.07;7.50;;;14.40;99.90;;;;;;4993931;28;20219;-52
2022/05/24 05:03:23;;;;;;;9.10;6.07;;;14.50;99.90;;;;;;4993875;28;20184;-52
2022/05/24 05:05:51;;;;;;;12.00;7.27;;;14.50;69.30;;;;;;4993756;28;20227;-51
2022/05/24 05:08:17;;;;;;;8.07;6.17;;;14.40;95.50;;;;;;4993698;28;20232;-51
2022/05/24 05:10:43;;;;;;;7.97;5.93;;;14.40;66.90;;;;;;4993793;28;20478;-52
2022/05/24 05:13:08;;;;;;;9.00;5.93;;;14.50;36.10;;;;;;4993585;28;20891;-52
2022/05/24 05:15:37;;;;;;;10.80;6.10;;;14.40;41.80;;;;;;4993772;28;20184;-51
2022/05/24 05:18:07;;;;;;;8.90;6.47;;;14.50;1.00;;;;;;4993405;28;20330;-51
2022/05/24 05:20:39;;;;;;;8.57;6.80;;;14.50;1.00;;;;;;4993424;28;20438;-51
2022/05/24 05:23:09;;;;;;;10.80;7.50;;;14.50;1.00;;;;;;4993720;28;20475;-51
2022/05/24 05:25:35;;;;;;;13.33;6.40;;;14.60;1.00;;;;;;4993677;28;20420;-52
2022/05/24 05:28:02;;;;;;;8.53;5.70;;;14.70;1.00;;;;;;4993764;28;21230;-52
2022/05/24 05:33:12;;;;;;;9.10;5.90;;;14.80;1.00;;;;;;4993399;28;20399;-51
2022/05/24 05:35:38;;;;;;;11.20;5.90;;;15.00;1.00;;;;;;4993190;28;20427;-51
2022/05/24 05:38:04;;;;;;;6.83;5.20;;;15.30;1.00;;;;;;4993557;28;20212;-52
2022/05/24 05:40:29;;;;;;;7.43;5.40;;;15.40;1.00;;;;;;4993216;28;20211;-51
2022/05/24 05:42:55;;;;;;;10.00;6.73;;;15.70;1.00;;;;;;4993071;28;20568;-51
2022/05/24 05:45:20;;;;;;;9.30;6.40;;;15.70;1.00;;;;;;4993147;28;20168;-51
2022/05/24 05:47:46;;;;;;;9.33;7.10;;;15.70;1.00;;;;;;4993019;28;20200;-51
2022/05/24 05:50:11;;;;;;;12.00;6.97;;;15.80;1.00;;;;;;4992888;28;20183;-51
2022/05/24 05:52:37;;;;;;;9.93;6.10;;;15.80;1.00;;;;;;4992933;28;20270;-51
2022/05/24 05:55:02;;;;;;;11.90;6.07;;;15.80;1.00;;;;;;4992961;28;20207;-51
2022/05/24 05:57:28;;;;;;;8.80;6.40;;;15.90;99.90;;;;;;4992773;28;20184;-51
2022/05/24 05:59:54;;;;;;;13.87;6.63;;;15.90;99.90;;;;;;4992951;28;21007;-51
2022/05/24 06:02:19;;;;;;;10.20;6.20;;;15.90;99.90;;;;;;4993070;28;20243;-51
2022/05/24 06:04:45;;;;;;;12.13;5.60;;;15.80;99.90;;;;;;4992721;28;20180;-51
2022/05/24 06:07:10;;;;;;;6.63;5.80;;;15.90;99.90;;;;;;4992539;28;20630;-51
2022/05/24 06:09:37;;;;;;;7.00;5.50;;;15.90;99.90;;;;;;4992611;28;20183;-51
2022/05/24 06:12:03;;;;;;;9.10;5.83;;;15.90;99.90;;;;;;4992547;28;20311;-51
2022/05/24 06:14:28;;;;;;;8.07;5.80;;;15.70;99.90;;;;;;4992494;28;20875;-51
2022/05/24 06:16:54;;;;;;;10.17;6.20;;;15.80;99.90;;;;;;4992528;28;20466;-51
2022/05/24 06:19:20;;;;;;;7.37;6.00;;;16.00;99.90;;;;;;4992210;28;20215;-51
2022/05/24 06:21:45;;;;;;;7.37;5.50;;;16.20;99.90;;;;;;4992759;28;20168;-50
2022/05/24 06:24:11;;;;;;;7.83;5.60;;;16.60;99.90;;;;;;4992391;28;20165;-51
2022/05/24 06:26:36;;;;;;;8.00;6.80;;;16.70;99.90;;;;;;4992362;28;20184;-52
2022/05/24 06:29:04;;;;;;;8.97;5.37;;;16.60;99.90;;;;;;4991676;28;20191;-51
2022/05/24 06:31:30;;;;;;;9.03;6.27;;;16.60;99.90;;;;;;4992247;28;20569;-51
2022/05/24 06:33:55;;;;;;;9.90;7.00;;;16.50;99.90;;;;;;4992108;28;20538;-51
2022/05/24 06:36:21;;;;;;;11.20;7.33;;;16.40;99.90;;;;;;4992136;28;20192;-52
2022/05/24 06:38:47;;;;;;;11.97;7.27;;;16.40;99.90;;;;;;4992063;28;20200;-51
2022/05/24 06:41:12;;;;;;;8.87;7.60;;;16.10;99.90;;;;;;4992116;28;20631;-51
2022/05/24 06:43:38;;;;;;;9.70;7.63;;;16.10;99.90;;;;;;4992218;28;20176;-51
2022/05/24 06:46:07;;;;;;;9.43;7.77;;;15.90;99.90;;;;;;4992230;28;20195;-51
2022/05/24 06:48:37;;;;;;;18.53;8.40;;;15.90;99.90;;;;;;4991900;28;20168;-51
2022/05/24 06:51:12;;;;;;;14.37;8.80;;;16.00;99.90;;;;;;4991999;28;20449;-51
2022/05/24 06:53:39;;;;;;;11.10;9.07;;;15.90;99.90;;;;;;4991939;28;20490;-51
2022/05/24 06:56:06;;;;;;;15.97;10.13;;;15.90;99.90;;;;;;4991948;28;20422;-51
2022/05/24 06:58:33;;;;;;;10.57;9.30;;;16.00;99.90;;;;;;4991818;28;20459;-51
2022/05/24 07:03:48;;;;;;;12.10;9.83;;;16.40;99.90;;;;;;4981609;28;20928;-51
2022/05/24 07:06:15;;;;;;;13.70;10.10;;;16.60;99.90;;;;;;4991979;28;20463;-51
2022/05/24 07:08:44;;;;;;;14.83;10.73;;;16.60;99.90;;;;;;4991518;28;20471;-51
2022/05/24 07:11:10;;;;;;;13.30;10.70;;;16.70;99.90;;;;;;4991627;28;20502;-51
2022/05/24 07:13:37;;;;;;;12.40;9.30;;;16.60;99.90;;;;;;4991642;28;20882;-51
2022/05/24 07:16:03;;;;;;;13.93;11.23;;;16.70;99.90;;;;;;4991625;28;20498;-51
2022/05/24 07:18:28;;;;;;;12.53;10.40;;;16.80;99.90;;;;;;4991524;28;20593;-51
2022/05/24 07:20:54;;;;;;;13.03;10.27;;;17.10;99.90;;;;;;4991520;28;20183;-51
2022/05/24 07:23:21;;;;;;;12.83;10.70;;;17.30;99.90;;;;;;4991679;28;20507;-51
2022/05/24 07:25:48;;;;;;;20.90;11.37;;;17.70;99.90;;;;;;4991466;28;20643;-51
2022/05/24 07:28:18;;;;;;;16.70;10.90;;;18.20;99.90;;;;;;4991675;28;20435;-51
2022/05/24 07:30:45;;;;;;;13.50;11.43;;;18.60;99.90;;;;;;4991284;28;20772;-51
2022/05/24 07:33:12;;;;;;;10.63;9.57;;;18.80;99.90;;;;;;4991447;28;20399;-51
2022/05/24 07:35:38;;;;;;;13.97;11.00;;;18.70;99.90;;;;;;4991483;28;20503;-51
2022/05/24 07:38:08;;;;;;;13.57;10.73;;;18.50;99.90;;;;;;4991486;28;20541;-51
2022/05/24 07:46:08;;;;;;;15.30;10.60;;;18.50;99.90;;;;;;4995388;28;20410;-51
2022/05/24 07:48:34;;;;;;;13.57;11.47;;;18.70;99.90;;;;;;4995638;28;20406;-51
2022/05/24 07:51:01;;;;;;;13.70;10.63;;;18.70;99.90;;;;;;4995310;28;20412;-51
2022/05/24 07:53:27;;;;;;;17.27;12.87;;;18.60;99.90;;;;;;4995404;28;20790;-51
2022/05/24 07:55:57;;;;;;;18.80;13.80;;;18.50;99.90;;;;;;4993977;28;20438;-51
2022/05/24 07:58:23;;;;;;;20.90;14.57;;;18.30;99.90;;;;;;4995036;28;20513;-50
2022/05/24 08:00:49;;;;;;;22.30;14.87;;;18.00;99.90;;;;;;4992594;28;20415;-50
2022/05/24 08:03:15;;;;;;;18.93;14.10;;;17.90;99.90;;;;;;4988402;28;20747;-50
2022/05/24 08:05:41;;;;;;;16.27;12.97;;;18.20;99.90;;;;;;4977222;28;20195;-52
2022/05/24 08:08:08;;;;;;;18.47;12.53;;;18.70;99.90;;;;;;4973417;28;20248;-51
2022/05/24 08:10:37;;;;;;;14.70;11.53;;;19.20;99.90;;;;;;4975511;28;20511;-51
2022/05/24 08:13:06;;;;;;;14.23;11.80;;;19.30;99.90;;;;;;4995038;28;20888;-51
2022/05/24 08:15:32;;;;;;;14.90;11.20;;;19.30;99.90;;;;;;4985056;28;20464;-50
2022/05/24 08:17:58;;;;;;;15.47;11.50;;;19.80;99.90;;;;;;4977066;28;20990;-51
2022/05/24 08:20:24;;;;;;;17.30;11.27;;;20.10;99.90;;;;;;4977928;28;20416;-51
2022/05/24 08:22:50;;;;;;;15.53;11.00;;;19.90;99.90;;;;;;4976997;28;20185;-51
2022/05/24 08:25:16;;;;;;;14.10;10.77;;;19.60;99.90;;;;;;4975302;28;20228;-50
2022/05/24 08:27:42;;;;;;;14.17;10.73;;;19.40;99.90;;;;;;4975227;28;20188;-51
2022/05/24 08:30:11;;;;;;;14.43;10.70;;;19.40;99.90;;;;;;4973962;28;20416;-54
2022/05/24 08:32:37;;;;;;;14.20;9.90;;;19.40;99.90;;;;;;4975254;28;20942;-54
2022/05/24 08:35:04;;;;;;;15.20;11.10;;;19.20;99.90;;;;;;4975221;28;20431;-55
2022/05/24 08:37:30;;;;;;;14.50;10.63;;;18.90;99.90;;;;;;4975696;28;20450;-54
2022/05/24 08:39:57;;;;;;;12.53;9.60;;;18.70;99.90;;;;;;4985398;28;20474;-54
2022/05/24 08:42:59;;;;;;;12.37;10.00;;;18.70;99.90;;;;;;4976279;28;20448;-54
2022/05/24 08:48:26;;;;;;;11.60;9.87;;;19.10;99.90;;;;;;4975539;28;20528;-54
2022/05/24 08:51:11;;;;;;;13.87;10.10;;;19.10;99.90;;;;;;4988627;28;20434;-55
2022/05/24 08:53:45;;;;;;;18.20;11.40;;;19.00;99.90;;;;;;4994058;28;20465;-55
2022/05/24 08:56:18;;;;;;;16.30;11.67;;;18.60;99.90;;;;;;4978013;28;20922;-55
2022/05/24 08:58:56;;;;;;;17.47;11.37;;;18.30;99.90;;;;;;4974986;28;20483;-55
2022/05/24 09:01:32;;;;;;;13.33;11.10;;;18.20;99.90;;;;;;4975787;28;20433;-53
2022/05/24 09:04:04;;;;;;;14.87;11.40;;;18.40;99.90;;;;;;4974859;28;20424;-58
2022/05/24 09:06:43;;;;;;;15.43;11.60;;;18.60;99.90;;;;;;4992259;28;20550;-54
2022/05/24 09:09:14;;;;;;;14.67;10.10;;;18.80;99.90;;;;;;4993883;28;20554;-55
2022/05/24 09:12:21;;;;;;;16.47;11.43;;;19.00;99.90;;;;;;4976623;28;20432;-55
2022/05/24 09:14:56;;;;;;;15.40;10.40;;;19.30;99.90;;;;;;4976979;28;20529;-56
2022/05/24 09:17:52;;;;;;;13.33;11.00;;;19.40;99.90;;;;;;4994442;28;20419;-54
2022/05/24 09:20:41;;;;;;;14.20;11.10;;;19.40;99.90;;;;;;4982769;28;20428;-54
2022/05/24 09:23:46;;;;;;;15.10;10.27;;;19.60;99.90;;;;;;4962178;28;20437;-55
2022/05/24 09:26:20;;;;;;;18.33;11.10;;;19.60;99.90;;;;;;4960052;28;20417;-54
2022/05/24 09:28:57;;;;;;;13.67;10.47;;;19.40;99.90;;;;;;4974347;28;20474;-55
2022/05/24 09:31:32;;;;;;;15.40;11.30;;;19.10;99.90;;;;;;4974186;28;20528;-55
2022/05/24 09:34:05;;;;;;;13.90;10.93;;;19.20;99.90;;;;;;4978618;28;20437;-54
2022/05/24 09:36:37;;;;;;;13.03;10.80;;;19.30;99.90;;;;;;4993267;28;20466;-54
2022/05/24 09:39:24;;;;;;;16.53;10.20;;;19.20;99.90;;;;;;4993220;28;20451;-55
2022/05/24 09:41:55;;;;;;;16.10;12.00;;;19.10;99.90;;;;;;4993031;28;20462;-54
2022/05/24 09:44:21;;;;;;;14.17;11.67;;;18.90;99.90;;;;;;4990280;28;20432;-55
2022/05/24 09:46:47;;;;;;;23.77;12.83;;;18.80;99.90;;;;;;4976442;28;20778;-54
2022/05/24 09:49:31;;;;;;;20.13;13.37;;;18.80;99.90;;;;;;4973995;28;20181;-54
2022/05/24 09:52:11;;;;;;;19.87;12.17;;;18.80;99.90;;;;;;4973893;28;20412;-54
2022/05/24 09:54:49;;;;;;;19.50;12.00;;;18.90;99.90;;;;;;4973823;28;21118;-54
2022/05/24 09:57:22;;;;;;;17.00;13.13;;;19.10;99.90;;;;;;4973508;28;20424;-54
2022/05/24 09:59:58;;;;;;;20.40;13.43;;;19.30;99.90;;;;;;4979397;28;20972;-54
2022/05/24 10:02:28;;;;;;;19.47;13.13;;;19.10;99.90;;;;;;4993005;28;20822;-54
2022/05/24 10:04:54;;;;;;;14.80;11.10;;;19.00;99.90;;;;;;4985175;28;20435;-54
2022/05/24 10:07:24;;;;;;;14.20;11.35;;;18.70;99.90;;;;;;4978261;28;20763;-55
2022/05/24 10:09:54;;;;;;;16.73;10.90;;;18.40;99.90;;;;;;4992779;28;20173;-54
2022/05/24 10:12:30;;;;;;;15.27;10.80;;;18.10;99.90;;;;;;4981307;28;20518;-55
2022/05/24 10:15:27;;;;;;;19.40;11.03;;;17.80;99.90;;;;;;4976070;28;20432;-54
2022/05/24 10:18:31;;;;;;;16.53;11.30;;;17.60;99.90;;;;;;4971186;28;20452;-54
2022/05/24 10:21:12;;;;;;;13.37;10.90;;;17.40;99.90;;;;;;4973013;28;20412;-56
2022/05/24 10:24:17;;;;;;;19.13;11.67;;;17.20;99.90;;;;;;4975556;28;20467;-50
2022/05/24 10:26:56;;;;;;;17.23;12.07;;;17.00;99.90;;;;;;4952997;29;20524;-51
2022/05/24 10:29:51;;;;;;;17.30;12.67;;;17.00;99.90;;;;;;4963178;28;20451;-50
2022/05/24 10:38:53;;;;;;;20.60;12.30;;;17.90;99.90;;;;;;4987917;28;20519;-49
2022/05/24 10:41:27;;;;;;;20.73;14.50;;;18.00;99.90;;;;;;4973270;28;20432;-49
2022/05/24 10:43:55;;;;;;;20.13;14.17;;;17.90;99.90;;;;;;4979171;28;20459;-50
2022/05/24 10:46:34;;;;;;;21.33;14.10;;;17.70;99.90;;;;;;4992085;28;20527;-49
2022/05/24 10:49:11;;;;;;;21.13;16.00;;;17.50;99.90;;;;;;4992248;28;20449;-49
2022/05/24 10:51:48;;;;;;;19.50;15.80;;;17.20;99.90;;;;;;4992040;28;20878;-50
2022/05/24 10:54:51;;;;;;;24.40;16.83;;;17.20;99.90;;;;;;4983702;28;20439;-49
2022/05/24 10:57:28;;;;;;;21.97;15.97;;;17.10;99.90;;;;;;4973070;28;20427;-50
2022/05/24 10:59:57;;;;;;;22.20;16.10;;;17.00;99.90;;;;;;4985146;28;20470;-50
2022/05/24 11:02:48;;;;;;;23.63;15.30;;;16.80;99.90;;;;;;4991943;28;20416;-51
2022/05/24 11:05:14;;;;;;;18.53;13.50;;;16.50;99.90;;;;;;4982276;28;20458;-50
2022/05/24 11:07:40;;;;;;;21.00;14.20;;;16.30;99.90;;;;;;4978640;28;20476;-51
2022/05/24 11:10:21;;;;;;;20.30;11.20;;;16.10;99.90;;;;;;4973338;28;20538;-55
2022/05/24 11:12:50;;;;;;;15.93;9.50;;;16.00;99.90;;;;;;4974070;28;20423;-55
2022/05/24 11:15:23;;;;;;;18.37;10.70;;;15.90;99.90;;;;;;4979392;28;20459;-55
2022/05/24 11:17:49;;;;;;;12.77;9.70;;;15.70;99.90;;;;;;4979421;28;20420;-55
2022/05/24 11:20:22;;;;;;;14.33;10.53;;;15.50;99.90;;;;;;4979960;28;20428;-54
2022/05/24 11:23:01;;;;;;;17.53;10.37;;;15.50;99.90;;;;;;4973675;28;20188;-55
2022/05/24 11:25:46;;;;;;;14.53;9.47;;;15.70;99.90;;;;;;4973811;28;20828;-54
2022/05/24 11:28:22;;;;;;;14.30;9.67;;;15.80;99.90;;;;;;4973868;28;20886;-57
2022/05/24 11:30:48;;;;;;;11.67;9.70;;;15.80;99.90;;;;;;4981259;28;20525;-55
2022/05/24 11:33:28;;;;;;;12.67;10.47;;;15.70;99.90;;;;;;4985384;28;20962;-56
2022/05/24 11:35:54;;;;;;;12.07;10.53;;;15.80;99.90;;;;;;4973686;28;20507;-55
2022/05/24 11:38:22;;;;;;;14.17;9.93;;;15.80;99.90;;;;;;4980914;28;20577;-55
2022/05/24 11:40:54;;;;;;;13.60;9.80;;;15.80;99.90;;;;;;4993053;28;20423;-55
2022/05/24 11:43:35;;;;;;;13.97;9.37;;;15.90;99.90;;;;;;4985766;28;20523;-55
2022/05/24 11:46:08;;;;;;;17.07;10.87;;;15.90;99.90;;;;;;4973646;28;20913;-55
2022/05/24 11:48:41;;;;;;;13.37;10.53;;;15.90;99.90;;;;;;4975149;28;20942;-55
2022/05/24 11:51:36;;;;;;;12.30;10.87;;;16.00;99.90;;;;;;4973625;28;20412;-55
2022/05/24 11:54:03;;;;;;;13.60;11.00;;;16.30;99.90;;;;;;4987727;28;20489;-55
2022/05/24 11:56:29;;;;;;;16.57;11.70;;;16.60;99.90;;;;;;4992990;28;20731;-55
2022/05/24 11:59:01;;;;;;;18.93;11.40;;;16.90;99.90;;;;;;4980186;28;20527;-56
2022/05/24 12:01:44;;;;;;;16.20;11.27;;;17.30;99.90;;;;;;4973473;28;20432;-54
2022/05/24 12:10:05;;;;;;;14.33;10.13;;;18.70;99.90;;;;;;4974318;28;20937;-50
2022/05/24 12:12:33;;;;;;;15.23;10.33;;;18.50;99.90;;;;;;4972288;28;20487;-50
2022/05/24 12:15:25;;;;;;;12.40;9.77;;;18.30;99.90;;;;;;4990990;28;20435;-49
2022/05/24 12:17:58;;;;;;;16.07;9.73;;;18.10;99.90;;;;;;4989608;28;20419;-50
2022/05/24 12:20:33;;;;;;;16.23;10.33;;;18.40;99.90;;;;;;4971680;28;21075;-50
2022/05/24 12:23:05;;;;;;;17.13;9.90;;;18.60;99.90;;;;;;4973420;28;20423;-49
2022/05/24 12:25:54;;;;;;;10.33;8.37;;;18.60;99.90;;;;;;4991441;28;20462;-49
2022/05/24 12:28:23;;;;;;;15.20;9.80;;;18.80;99.90;;;;;;4988761;28;20479;-49
2022/05/24 12:30:51;;;;;;;11.10;7.83;;;19.00;99.90;;;;;;4975558;28;20407;-49
2022/05/24 12:33:33;;;;;;;10.57;8.80;;;18.80;99.90;;;;;;4977923;28;20432;-49
2022/05/24 12:36:17;;;;;;;11.00;8.30;;;18.60;99.90;;;;;;4995061;28;20411;-50
2022/05/24 12:38:49;;;;;;;9.20;7.10;;;18.20;99.90;;;;;;4988298;28;20472;-49
2022/05/24 12:41:55;;;;;;;12.03;7.70;;;17.90;99.90;;;;;;4975086;28;20913;-50
2022/05/24 12:44:30;;;;;;;10.23;6.50;;;18.10;99.90;;;;;;4984778;28;20485;-50
2022/05/24 12:47:14;;;;;;;13.43;7.70;;;18.60;99.90;;;;;;4994223;28;20415;-50
2022/05/24 12:49:49;;;;;;;17.80;6.40;;;19.00;99.90;;;;;;4981852;28;20488;-50
2022/05/24 12:52:18;;;;;;;7.97;6.40;;;20.20;99.90;;;;;;4974990;28;20890;-51
2022/05/24 12:54:49;;;;;;;7.93;5.87;;;21.40;99.90;;;;;;4986607;28;20450;-49
2022/05/24 12:57:28;;;;;;;9.80;7.47;;;22.30;99.90;;;;;;4994306;28;20927;-50
2022/05/24 12:59:56;;;;;;;9.13;6.80;;;22.60;99.90;;;;;;4993559;28;20467;-51
2022/05/24 13:02:34;;;;;;;10.37;6.03;;;22.30;99.90;;;;;;4994242;28;20416;-51
2022/05/24 13:05:20;;;;;;;10.67;5.53;;;22.40;99.90;;;;;;4992587;28;20435;-50
2022/05/24 13:07:51;;;;;;;13.40;6.30;;;22.50;99.90;;;;;;4988432;28;20548;-51
2022/05/24 13:10:23;;;;;;;10.30;6.47;;;21.70;99.90;;;;;;4974643;28;20777;-49
2022/05/24 13:12:53;;;;;;;10.93;6.20;;;20.70;99.90;;;;;;4974347;28;20953;-49
2022/05/24 13:15:22;;;;;;;9.23;7.17;;;19.70;99.90;;;;;;4993818;28;20478;-50
2022/05/24 13:17:54;;;;;;;11.80;6.50;;;19.10;99.90;;;;;;4992028;28;20439;-50
2022/05/24 13:20:20;;;;;;;7.83;6.00;;;19.00;99.90;;;;;;4974387;28;20455;-50
2022/05/24 13:22:54;;;;;;;11.13;6.57;;;19.10;99.90;;;;;;4974477;28;20397;-49
2022/05/24 13:25:24;;;;;;;9.63;5.80;;;19.40;99.90;;;;;;4955070;28;20190;-49
2022/05/24 13:28:03;;;;;;;6.40;5.50;;;20.00;99.90;;;;;;4955439;29;20393;-50
2022/05/24 13:33:37;;;;;;;8.67;5.40;;;20.30;99.90;;;;;;4961538;28;20414;-49
2022/05/24 13:36:20;;;;;;;7.30;5.50;;;19.80;99.90;;;;;;4974161;28;20965;-49
2022/05/24 13:39:09;;;;;;;6.80;6.07;;;19.50;99.90;;;;;;4977540;28;20789;-50
2022/05/24 13:41:42;;;;;;;7.03;4.90;;;19.60;99.90;;;;;;4984413;28;20518;-49